sensor_id;sensor_type;location;lat;lon;timestamp;P1;durP1;ratioP1;P2;durP2;ratioP2
6388;SDS011;3227;42.654;23.360;2023-04-29T00:00:35;8.70;;;5.00;;
6388;SDS011;3227;42.654;23.360;2023-04-29T00:03:02;8.73;;;5.07;;
6388;SDS011;3227;42.654;23.360;2023-04-29T00:05:30;8.10;;;4.73;;
6388;SDS011;3227;42.654;23.360;2023-04-29T00:07:56;8.73;;;4.87;;
6388;SDS011;3227;42.654;23.360;2023-04-29T00:10:23;9.47;;;4.80;;
6388;SDS011;3227;42.654;23.360;2023-04-29T00:12:50;9.63;;;5.00;;
6388;SDS011;3227;42.654;23.360;2023-04-29T00:15:17;10.50;;;4.70;;
6388;SDS011;3227;42.654;23.360;2023-04-29T00:17:44;10.50;;;4.83;;
6388;SDS011;3227;42.654;23.360;2023-04-29T00:20:11;10.90;;;4.73;;
6388;SDS011;3227;42.654;23.360;2023-04-29T00:22:39;9.80;;;4.90;;
6388;SDS011;3227;42.654;23.360;2023-04-29T00:25:07;10.23;;;5.40;;
6388;SDS011;3227;42.654;23.360;2023-04-29T00:27:34;15.23;;;5.73;;
6388;SDS011;3227;42.654;23.360;2023-04-29T00:30:01;11.67;;;4.80;;
6388;SDS011;3227;42.654;23.360;2023-04-29T00:32:28;16.53;;;5.50;;
6388;SDS011;3227;42.654;23.360;2023-04-29T00:34:55;10.93;;;5.43;;
6388;SDS011;3227;42.654;23.360;2023-04-29T00:37:22;12.17;;;5.10;;
6388;SDS011;3227;42.654;23.360;2023-04-29T00:39:50;11.77;;;5.20;;
6388;SDS011;3227;42.654;23.360;2023-04-29T00:42:17;8.93;;;5.20;;
6388;SDS011;3227;42.654;23.360;2023-04-29T00:44:44;8.00;;;4.63;;
6388;SDS011;3227;42.654;23.360;2023-04-29T00:47:10;10.27;;;5.30;;
6388;SDS011;3227;42.654;23.360;2023-04-29T00:49:37;16.90;;;6.00;;
6388;SDS011;3227;42.654;23.360;2023-04-29T00:52:05;11.70;;;5.33;;
6388;SDS011;3227;42.654;23.360;2023-04-29T00:54:33;11.63;;;5.40;;
6388;SDS011;3227;42.654;23.360;2023-04-29T00:57:01;10.97;;;5.93;;
6388;SDS011;3227;42.654;23.360;2023-04-29T00:59:30;10.30;;;5.73;;
6388;SDS011;3227;42.654;23.360;2023-04-29T01:01:58;15.20;;;6.50;;
6388;SDS011;3227;42.654;23.360;2023-04-29T01:04:27;17.47;;;6.93;;
6388;SDS011;3227;42.654;23.360;2023-04-29T01:06:57;13.23;;;5.93;;
6388;SDS011;3227;42.654;23.360;2023-04-29T01:09:34;10.83;;;6.30;;
6388;SDS011;3227;42.654;23.360;2023-04-29T01:12:19;13.17;;;7.20;;
6388;SDS011;3227;42.654;23.360;2023-04-29T01:14:49;14.70;;;6.70;;
6388;SDS011;3227;42.654;23.360;2023-04-29T01:17:28;13.60;;;7.23;;
6388;SDS011;3227;42.654;23.360;2023-04-29T01:19:59;15.83;;;6.93;;
6388;SDS011;3227;42.654;23.360;2023-04-29T01:22:27;12.83;;;7.10;;
6388;SDS011;3227;42.654;23.360;2023-04-29T01:24:55;14.77;;;7.40;;
6388;SDS011;3227;42.654;23.360;2023-04-29T01:27:24;12.60;;;7.03;;
6388;SDS011;3227;42.654;23.360;2023-04-29T01:29:58;11.90;;;6.77;;
6388;SDS011;3227;42.654;23.360;2023-04-29T01:32:36;18.23;;;6.87;;
6388;SDS011;3227;42.654;23.360;2023-04-29T01:35:17;13.57;;;6.87;;
6388;SDS011;3227;42.654;23.360;2023-04-29T01:37:56;14.30;;;6.17;;
6388;SDS011;3227;42.654;23.360;2023-04-29T01:40:42;14.77;;;7.00;;
6388;SDS011;3227;42.654;23.360;2023-04-29T01:43:14;12.50;;;7.33;;
6388;SDS011;3227;42.654;23.360;2023-04-29T01:45:42;15.57;;;7.20;;
6388;SDS011;3227;42.654;23.360;2023-04-29T01:48:09;13.13;;;6.60;;
6388;SDS011;3227;42.654;23.360;2023-04-29T01:50:36;13.87;;;7.00;;
6388;SDS011;3227;42.654;23.360;2023-04-29T01:53:03;20.87;;;7.37;;
6388;SDS011;3227;42.654;23.360;2023-04-29T01:55:31;11.63;;;6.33;;
6388;SDS011;3227;42.654;23.360;2023-04-29T01:57:59;13.97;;;7.37;;
6388;SDS011;3227;42.654;23.360;2023-04-29T02:00:26;16.17;;;6.37;;
6388;SDS011;3227;42.654;23.360;2023-04-29T02:02:52;12.57;;;6.63;;
6388;SDS011;3227;42.654;23.360;2023-04-29T02:05:19;12.27;;;6.53;;
6388;SDS011;3227;42.654;23.360;2023-04-29T02:07:46;16.20;;;6.67;;
6388;SDS011;3227;42.654;23.360;2023-04-29T02:10:13;15.53;;;7.43;;
6388;SDS011;3227;42.654;23.360;2023-04-29T02:12:40;19.20;;;9.03;;
6388;SDS011;3227;42.654;23.360;2023-04-29T02:15:08;17.57;;;8.17;;
6388;SDS011;3227;42.654;23.360;2023-04-29T02:17:35;13.23;;;7.90;;
6388;SDS011;3227;42.654;23.360;2023-04-29T02:20:02;12.87;;;8.23;;
6388;SDS011;3227;42.654;23.360;2023-04-29T02:22:30;20.37;;;9.20;;
6388;SDS011;3227;42.654;23.360;2023-04-29T02:24:56;22.00;;;9.60;;
6388;SDS011;3227;42.654;23.360;2023-04-29T02:27:23;14.97;;;8.27;;
6388;SDS011;3227;42.654;23.360;2023-04-29T02:29:50;19.20;;;7.83;;
6388;SDS011;3227;42.654;23.360;2023-04-29T02:32:18;16.80;;;8.40;;
6388;SDS011;3227;42.654;23.360;2023-04-29T02:34:45;21.97;;;8.37;;
6388;SDS011;3227;42.654;23.360;2023-04-29T02:37:13;16.00;;;8.20;;
6388;SDS011;3227;42.654;23.360;2023-04-29T02:39:45;19.43;;;8.80;;
6388;SDS011;3227;42.654;23.360;2023-04-29T02:42:12;17.37;;;9.30;;
6388;SDS011;3227;42.654;23.360;2023-04-29T02:44:38;15.93;;;9.13;;
6388;SDS011;3227;42.654;23.360;2023-04-29T02:47:06;14.57;;;8.33;;
6388;SDS011;3227;42.654;23.360;2023-04-29T02:49:34;15.20;;;8.03;;
6388;SDS011;3227;42.654;23.360;2023-04-29T02:52:01;14.77;;;7.97;;
6388;SDS011;3227;42.654;23.360;2023-04-29T02:54:28;16.27;;;8.87;;
6388;SDS011;3227;42.654;23.360;2023-04-29T02:56:55;13.47;;;7.67;;
6388;SDS011;3227;42.654;23.360;2023-04-29T02:59:22;14.47;;;7.37;;
6388;SDS011;3227;42.654;23.360;2023-04-29T03:01:49;14.03;;;7.50;;
6388;SDS011;3227;42.654;23.360;2023-04-29T03:04:18;20.20;;;8.47;;
6388;SDS011;3227;42.654;23.360;2023-04-29T03:06:46;19.30;;;8.77;;
6388;SDS011;3227;42.654;23.360;2023-04-29T03:09:13;18.43;;;7.70;;
6388;SDS011;3227;42.654;23.360;2023-04-29T03:11:40;16.00;;;8.20;;
6388;SDS011;3227;42.654;23.360;2023-04-29T03:14:06;19.70;;;9.17;;
6388;SDS011;3227;42.654;23.360;2023-04-29T03:16:33;14.93;;;8.53;;
6388;SDS011;3227;42.654;23.360;2023-04-29T03:19:05;17.67;;;7.10;;
6388;SDS011;3227;42.654;23.360;2023-04-29T03:21:32;16.80;;;7.67;;
6388;SDS011;3227;42.654;23.360;2023-04-29T03:24:00;12.93;;;7.07;;
6388;SDS011;3227;42.654;23.360;2023-04-29T03:26:26;15.37;;;7.17;;
6388;SDS011;3227;42.654;23.360;2023-04-29T03:28:53;15.70;;;7.43;;
6388;SDS011;3227;42.654;23.360;2023-04-29T03:31:20;16.73;;;7.00;;
6388;SDS011;3227;42.654;23.360;2023-04-29T03:33:48;13.97;;;7.13;;
6388;SDS011;3227;42.654;23.360;2023-04-29T03:36:17;14.37;;;7.43;;
6388;SDS011;3227;42.654;23.360;2023-04-29T03:38:44;15.03;;;7.70;;
6388;SDS011;3227;42.654;23.360;2023-04-29T03:41:12;19.13;;;8.70;;
6388;SDS011;3227;42.654;23.360;2023-04-29T03:43:39;19.57;;;8.57;;
6388;SDS011;3227;42.654;23.360;2023-04-29T03:46:08;16.87;;;7.53;;
6388;SDS011;3227;42.654;23.360;2023-04-29T03:48:35;18.43;;;8.80;;
6388;SDS011;3227;42.654;23.360;2023-04-29T03:51:02;13.13;;;7.60;;
6388;SDS011;3227;42.654;23.360;2023-04-29T03:53:29;15.27;;;7.70;;
6388;SDS011;3227;42.654;23.360;2023-04-29T03:55:57;16.47;;;8.10;;
6388;SDS011;3227;42.654;23.360;2023-04-29T03:58:25;12.27;;;6.77;;
6388;SDS011;3227;42.654;23.360;2023-04-29T04:00:52;14.23;;;7.70;;
6388;SDS011;3227;42.654;23.360;2023-04-29T04:03:20;20.37;;;7.47;;
6388;SDS011;3227;42.654;23.360;2023-04-29T04:05:49;15.23;;;7.87;;
6388;SDS011;3227;42.654;23.360;2023-04-29T04:08:16;14.17;;;7.53;;
6388;SDS011;3227;42.654;23.360;2023-04-29T04:10:43;12.27;;;7.10;;
6388;SDS011;3227;42.654;23.360;2023-04-29T04:13:09;18.10;;;7.20;;
6388;SDS011;3227;42.654;23.360;2023-04-29T04:15:38;16.40;;;7.60;;
6388;SDS011;3227;42.654;23.360;2023-04-29T04:18:04;18.27;;;7.93;;
6388;SDS011;3227;42.654;23.360;2023-04-29T04:20:31;20.67;;;7.93;;
6388;SDS011;3227;42.654;23.360;2023-04-29T04:22:58;16.37;;;7.43;;
6388;SDS011;3227;42.654;23.360;2023-04-29T04:25:25;17.70;;;8.17;;
6388;SDS011;3227;42.654;23.360;2023-04-29T04:27:52;16.33;;;8.53;;
6388;SDS011;3227;42.654;23.360;2023-04-29T04:30:19;19.50;;;8.03;;
6388;SDS011;3227;42.654;23.360;2023-04-29T04:32:47;14.93;;;8.17;;
6388;SDS011;3227;42.654;23.360;2023-04-29T04:35:14;20.47;;;8.10;;
6388;SDS011;3227;42.654;23.360;2023-04-29T04:37:40;18.67;;;7.70;;
6388;SDS011;3227;42.654;23.360;2023-04-29T04:40:08;16.80;;;8.60;;
6388;SDS011;3227;42.654;23.360;2023-04-29T04:42:36;14.87;;;7.97;;
6388;SDS011;3227;42.654;23.360;2023-04-29T04:45:03;17.80;;;8.60;;
6388;SDS011;3227;42.654;23.360;2023-04-29T04:47:30;18.80;;;8.67;;
6388;SDS011;3227;42.654;23.360;2023-04-29T04:49:59;14.37;;;8.03;;
6388;SDS011;3227;42.654;23.360;2023-04-29T04:52:26;13.63;;;8.33;;
6388;SDS011;3227;42.654;23.360;2023-04-29T04:54:52;14.47;;;7.93;;
6388;SDS011;3227;42.654;23.360;2023-04-29T04:57:19;14.17;;;7.10;;
6388;SDS011;3227;42.654;23.360;2023-04-29T04:59:46;17.60;;;8.03;;
6388;SDS011;3227;42.654;23.360;2023-04-29T05:02:13;14.33;;;6.80;;
6388;SDS011;3227;42.654;23.360;2023-04-29T05:04:40;13.97;;;7.27;;
6388;SDS011;3227;42.654;23.360;2023-04-29T05:07:08;13.10;;;7.57;;
6388;SDS011;3227;42.654;23.360;2023-04-29T05:09:35;15.03;;;7.53;;
6388;SDS011;3227;42.654;23.360;2023-04-29T05:12:01;17.07;;;7.87;;
6388;SDS011;3227;42.654;23.360;2023-04-29T05:14:28;12.97;;;7.07;;
6388;SDS011;3227;42.654;23.360;2023-04-29T05:16:57;15.63;;;7.90;;
6388;SDS011;3227;42.654;23.360;2023-04-29T05:19:24;18.50;;;8.03;;
6388;SDS011;3227;42.654;23.360;2023-04-29T05:21:50;18.27;;;9.07;;
6388;SDS011;3227;42.654;23.360;2023-04-29T05:24:20;18.23;;;7.83;;
6388;SDS011;3227;42.654;23.360;2023-04-29T05:26:47;17.17;;;6.73;;
6388;SDS011;3227;42.654;23.360;2023-04-29T05:29:16;11.87;;;6.23;;
6388;SDS011;3227;42.654;23.360;2023-04-29T05:31:42;13.73;;;5.90;;
6388;SDS011;3227;42.654;23.360;2023-04-29T05:34:09;11.03;;;5.47;;
6388;SDS011;3227;42.654;23.360;2023-04-29T05:36:36;15.37;;;6.00;;
6388;SDS011;3227;42.654;23.360;2023-04-29T05:39:03;15.37;;;8.10;;
6388;SDS011;3227;42.654;23.360;2023-04-29T05:41:31;10.30;;;5.90;;
6388;SDS011;3227;42.654;23.360;2023-04-29T05:43:57;9.60;;;5.53;;
6388;SDS011;3227;42.654;23.360;2023-04-29T05:46:24;9.93;;;4.93;;
6388;SDS011;3227;42.654;23.360;2023-04-29T05:48:51;9.03;;;5.50;;
6388;SDS011;3227;42.654;23.360;2023-04-29T05:51:18;10.47;;;5.03;;
6388;SDS011;3227;42.654;23.360;2023-04-29T05:53:45;11.67;;;5.13;;
6388;SDS011;3227;42.654;23.360;2023-04-29T05:56:11;8.40;;;4.93;;
6388;SDS011;3227;42.654;23.360;2023-04-29T05:58:40;9.63;;;4.70;;
6388;SDS011;3227;42.654;23.360;2023-04-29T06:01:06;11.77;;;5.17;;
6388;SDS011;3227;42.654;23.360;2023-04-29T06:03:33;11.30;;;5.50;;
6388;SDS011;3227;42.654;23.360;2023-04-29T06:06:00;16.40;;;6.73;;
6388;SDS011;3227;42.654;23.360;2023-04-29T06:08:27;12.30;;;7.07;;
6388;SDS011;3227;42.654;23.360;2023-04-29T06:10:54;15.10;;;8.77;;
6388;SDS011;3227;42.654;23.360;2023-04-29T06:13:21;17.53;;;8.20;;
6388;SDS011;3227;42.654;23.360;2023-04-29T06:15:50;13.83;;;7.97;;
6388;SDS011;3227;42.654;23.360;2023-04-29T06:18:17;15.97;;;8.53;;
6388;SDS011;3227;42.654;23.360;2023-04-29T06:20:44;14.10;;;7.67;;
6388;SDS011;3227;42.654;23.360;2023-04-29T06:23:11;14.20;;;8.83;;
6388;SDS011;3227;42.654;23.360;2023-04-29T06:25:38;14.17;;;7.50;;
6388;SDS011;3227;42.654;23.360;2023-04-29T06:28:05;20.77;;;7.50;;
6388;SDS011;3227;42.654;23.360;2023-04-29T06:30:32;16.27;;;7.33;;
6388;SDS011;3227;42.654;23.360;2023-04-29T06:33:00;12.63;;;7.67;;
6388;SDS011;3227;42.654;23.360;2023-04-29T06:35:27;17.43;;;7.73;;
6388;SDS011;3227;42.654;23.360;2023-04-29T06:37:54;13.37;;;7.03;;
6388;SDS011;3227;42.654;23.360;2023-04-29T06:43:08;18.80;;;8.43;;
6388;SDS011;3227;42.654;23.360;2023-04-29T06:45:35;11.93;;;6.90;;
6388;SDS011;3227;42.654;23.360;2023-04-29T06:48:03;10.93;;;6.13;;
6388;SDS011;3227;42.654;23.360;2023-04-29T06:50:31;12.43;;;7.37;;
6388;SDS011;3227;42.654;23.360;2023-04-29T06:52:58;10.77;;;7.00;;
6388;SDS011;3227;42.654;23.360;2023-04-29T06:55:24;13.47;;;7.27;;
6388;SDS011;3227;42.654;23.360;2023-04-29T06:57:51;12.00;;;7.50;;
6388;SDS011;3227;42.654;23.360;2023-04-29T07:00:23;12.37;;;7.47;;
6388;SDS011;3227;42.654;23.360;2023-04-29T07:02:50;10.87;;;6.43;;
6388;SDS011;3227;42.654;23.360;2023-04-29T07:05:18;13.20;;;7.20;;
6388;SDS011;3227;42.654;23.360;2023-04-29T07:07:44;14.13;;;6.40;;
6388;SDS011;3227;42.654;23.360;2023-04-29T07:10:11;14.47;;;6.23;;
6388;SDS011;3227;42.654;23.360;2023-04-29T07:12:38;10.70;;;6.27;;
6388;SDS011;3227;42.654;23.360;2023-04-29T07:15:05;13.40;;;7.90;;
6388;SDS011;3227;42.654;23.360;2023-04-29T07:17:33;9.87;;;6.20;;
6388;SDS011;3227;42.654;23.360;2023-04-29T07:19:59;11.03;;;6.73;;
6388;SDS011;3227;42.654;23.360;2023-04-29T07:22:28;12.43;;;6.90;;
6388;SDS011;3227;42.654;23.360;2023-04-29T07:24:54;12.67;;;6.83;;
6388;SDS011;3227;42.654;23.360;2023-04-29T07:27:21;11.73;;;6.53;;
6388;SDS011;3227;42.654;23.360;2023-04-29T07:29:49;11.03;;;6.80;;
6388;SDS011;3227;42.654;23.360;2023-04-29T07:32:15;14.43;;;6.40;;
6388;SDS011;3227;42.654;23.360;2023-04-29T07:34:43;11.67;;;5.97;;
6388;SDS011;3227;42.654;23.360;2023-04-29T07:37:09;11.30;;;6.87;;
6388;SDS011;3227;42.654;23.360;2023-04-29T07:39:38;13.43;;;6.53;;
6388;SDS011;3227;42.654;23.360;2023-04-29T07:42:06;12.60;;;6.50;;
6388;SDS011;3227;42.654;23.360;2023-04-29T07:44:33;10.63;;;6.10;;
6388;SDS011;3227;42.654;23.360;2023-04-29T07:47:00;10.20;;;6.50;;
6388;SDS011;3227;42.654;23.360;2023-04-29T07:49:27;13.33;;;6.27;;
6388;SDS011;3227;42.654;23.360;2023-04-29T07:51:54;15.67;;;6.83;;
6388;SDS011;3227;42.654;23.360;2023-04-29T07:54:21;11.50;;;6.30;;
6388;SDS011;3227;42.654;23.360;2023-04-29T07:56:49;13.47;;;6.63;;
6388;SDS011;3227;42.654;23.360;2023-04-29T07:59:16;10.90;;;7.00;;
6388;SDS011;3227;42.654;23.360;2023-04-29T08:01:42;14.73;;;6.40;;
6388;SDS011;3227;42.654;23.360;2023-04-29T08:04:09;11.07;;;5.90;;
6388;SDS011;3227;42.654;23.360;2023-04-29T08:06:36;9.50;;;5.50;;
6388;SDS011;3227;42.654;23.360;2023-04-29T08:09:03;12.40;;;6.23;;
6388;SDS011;3227;42.654;23.360;2023-04-29T08:11:29;12.97;;;5.83;;
6388;SDS011;3227;42.654;23.360;2023-04-29T08:13:58;13.50;;;5.67;;
6388;SDS011;3227;42.654;23.360;2023-04-29T08:16:24;13.17;;;5.90;;
6388;SDS011;3227;42.654;23.360;2023-04-29T08:18:52;11.10;;;6.03;;
6388;SDS011;3227;42.654;23.360;2023-04-29T08:21:18;12.63;;;5.67;;
6388;SDS011;3227;42.654;23.360;2023-04-29T08:23:45;9.53;;;5.53;;
6388;SDS011;3227;42.654;23.360;2023-04-29T08:26:12;10.23;;;5.37;;
6388;SDS011;3227;42.654;23.360;2023-04-29T08:28:39;8.60;;;4.70;;
6388;SDS011;3227;42.654;23.360;2023-04-29T08:31:07;15.20;;;4.50;;
6388;SDS011;3227;42.654;23.360;2023-04-29T08:33:41;8.70;;;4.70;;
6388;SDS011;3227;42.654;23.360;2023-04-29T08:36:08;10.93;;;5.10;;
6388;SDS011;3227;42.654;23.360;2023-04-29T08:38:35;9.63;;;4.70;;
6388;SDS011;3227;42.654;23.360;2023-04-29T08:41:01;9.40;;;5.10;;
6388;SDS011;3227;42.654;23.360;2023-04-29T08:43:28;7.67;;;4.37;;
6388;SDS011;3227;42.654;23.360;2023-04-29T08:45:57;11.47;;;4.87;;
6388;SDS011;3227;42.654;23.360;2023-04-29T08:48:26;8.33;;;4.90;;
6388;SDS011;3227;42.654;23.360;2023-04-29T08:50:54;11.03;;;5.00;;
6388;SDS011;3227;42.654;23.360;2023-04-29T08:53:22;9.57;;;5.17;;
6388;SDS011;3227;42.654;23.360;2023-04-29T08:55:49;9.20;;;5.00;;
6388;SDS011;3227;42.654;23.360;2023-04-29T08:58:17;11.10;;;4.50;;
6388;SDS011;3227;42.654;23.360;2023-04-29T09:00:44;11.10;;;4.50;;
6388;SDS011;3227;42.654;23.360;2023-04-29T09:03:13;11.65;;;4.60;;
6388;SDS011;3227;42.654;23.360;2023-04-29T09:05:44;14.43;;;4.50;;
6388;SDS011;3227;42.654;23.360;2023-04-29T09:08:14;9.00;;;4.00;;
6388;SDS011;3227;42.654;23.360;2023-04-29T09:10:41;10.07;;;4.60;;
6388;SDS011;3227;42.654;23.360;2023-04-29T09:13:08;9.57;;;4.40;;
6388;SDS011;3227;42.654;23.360;2023-04-29T09:15:48;8.57;;;4.60;;
6388;SDS011;3227;42.654;23.360;2023-04-29T09:21:13;7.53;;;3.63;;
6388;SDS011;3227;42.654;23.360;2023-04-29T09:23:41;9.33;;;4.40;;
6388;SDS011;3227;42.654;23.360;2023-04-29T09:26:08;9.50;;;4.10;;
6388;SDS011;3227;42.654;23.360;2023-04-29T09:28:35;7.33;;;3.93;;
6388;SDS011;3227;42.654;23.360;2023-04-29T09:31:03;8.10;;;4.10;;
6388;SDS011;3227;42.654;23.360;2023-04-29T09:33:46;9.80;;;4.23;;
6388;SDS011;3227;42.654;23.360;2023-04-29T09:36:29;13.63;;;4.17;;
6388;SDS011;3227;42.654;23.360;2023-04-29T09:39:02;9.57;;;4.30;;
6388;SDS011;3227;42.654;23.360;2023-04-29T09:41:29;8.80;;;4.20;;
6388;SDS011;3227;42.654;23.360;2023-04-29T09:44:01;8.87;;;4.47;;
6388;SDS011;3227;42.654;23.360;2023-04-29T09:46:29;9.40;;;4.27;;
6388;SDS011;3227;42.654;23.360;2023-04-29T09:48:57;9.80;;;4.50;;
6388;SDS011;3227;42.654;23.360;2023-04-29T09:51:24;12.70;;;4.77;;
6388;SDS011;3227;42.654;23.360;2023-04-29T09:53:52;10.93;;;4.93;;
6388;SDS011;3227;42.654;23.360;2023-04-29T09:56:19;9.47;;;4.97;;
6388;SDS011;3227;42.654;23.360;2023-04-29T09:58:46;11.07;;;4.80;;
6388;SDS011;3227;42.654;23.360;2023-04-29T10:01:13;13.37;;;6.20;;
6388;SDS011;3227;42.654;23.360;2023-04-29T10:03:43;11.93;;;5.40;;
6388;SDS011;3227;42.654;23.360;2023-04-29T10:06:12;16.77;;;5.43;;
6388;SDS011;3227;42.654;23.360;2023-04-29T10:08:40;15.33;;;5.23;;
6388;SDS011;3227;42.654;23.360;2023-04-29T10:11:10;10.43;;;5.20;;
6388;SDS011;3227;42.654;23.360;2023-04-29T10:13:39;11.73;;;5.73;;
6388;SDS011;3227;42.654;23.360;2023-04-29T10:16:10;12.03;;;5.40;;
6388;SDS011;3227;42.654;23.360;2023-04-29T10:18:47;12.00;;;5.43;;
6388;SDS011;3227;42.654;23.360;2023-04-29T10:21:17;13.27;;;6.10;;
6388;SDS011;3227;42.654;23.360;2023-04-29T10:23:47;13.67;;;5.83;;
6388;SDS011;3227;42.654;23.360;2023-04-29T10:26:16;15.70;;;6.13;;
6388;SDS011;3227;42.654;23.360;2023-04-29T10:28:51;10.82;;;5.85;;
6388;SDS011;3227;42.654;23.360;2023-04-29T10:31:21;12.73;;;6.40;;
6388;SDS011;3227;42.654;23.360;2023-04-29T10:33:50;14.90;;;6.32;;
6388;SDS011;3227;42.654;23.360;2023-04-29T10:36:20;12.30;;;6.00;;
6388;SDS011;3227;42.654;23.360;2023-04-29T10:38:48;9.33;;;5.27;;
6388;SDS011;3227;42.654;23.360;2023-04-29T10:41:20;10.83;;;5.33;;
6388;SDS011;3227;42.654;23.360;2023-04-29T10:43:49;9.77;;;5.23;;
6388;SDS011;3227;42.654;23.360;2023-04-29T10:46:16;9.90;;;5.10;;
6388;SDS011;3227;42.654;23.360;2023-04-29T10:48:44;10.07;;;5.53;;
6388;SDS011;3227;42.654;23.360;2023-04-29T10:51:11;11.80;;;5.73;;
6388;SDS011;3227;42.654;23.360;2023-04-29T10:56:38;12.13;;;5.20;;
6388;SDS011;3227;42.654;23.360;2023-04-29T10:59:10;10.50;;;5.10;;
6388;SDS011;3227;42.654;23.360;2023-04-29T11:01:48;11.13;;;5.20;;
6388;SDS011;3227;42.654;23.360;2023-04-29T11:04:16;12.83;;;5.00;;
6388;SDS011;3227;42.654;23.360;2023-04-29T11:06:44;14.75;;;4.65;;
6388;SDS011;3227;42.654;23.360;2023-04-29T11:09:14;12.05;;;5.03;;
6388;SDS011;3227;42.654;23.360;2023-04-29T11:11:46;10.38;;;4.70;;
6388;SDS011;3227;42.654;23.360;2023-04-29T11:14:24;9.23;;;4.00;;
6388;SDS011;3227;42.654;23.360;2023-04-29T11:16:53;13.25;;;4.78;;
6388;SDS011;3227;42.654;23.360;2023-04-29T11:19:23;8.50;;;4.28;;
6388;SDS011;3227;42.654;23.360;2023-04-29T11:22:08;9.40;;;4.40;;
6388;SDS011;3227;42.654;23.360;2023-04-29T11:24:49;11.93;;;4.10;;
6388;SDS011;3227;42.654;23.360;2023-04-29T11:27:19;6.65;;;3.50;;
6388;SDS011;3227;42.654;23.360;2023-04-29T11:29:50;12.30;;;3.90;;
6388;SDS011;3227;42.654;23.360;2023-04-29T11:32:19;9.60;;;3.67;;
6388;SDS011;3227;42.654;23.360;2023-04-29T11:34:47;8.65;;;3.70;;
6388;SDS011;3227;42.654;23.360;2023-04-29T11:37:18;7.93;;;3.55;;
6388;SDS011;3227;42.654;23.360;2023-04-29T11:39:45;10.98;;;3.40;;
6388;SDS011;3227;42.654;23.360;2023-04-29T11:42:13;8.93;;;3.33;;
6388;SDS011;3227;42.654;23.360;2023-04-29T11:44:45;10.00;;;3.50;;
6388;SDS011;3227;42.654;23.360;2023-04-29T11:47:12;9.07;;;3.47;;
6388;SDS011;3227;42.654;23.360;2023-04-29T11:49:39;9.38;;;3.15;;
6388;SDS011;3227;42.654;23.360;2023-04-29T11:52:06;7.43;;;2.80;;
6388;SDS011;3227;42.654;23.360;2023-04-29T11:54:34;8.18;;;2.92;;
6388;SDS011;3227;42.654;23.360;2023-04-29T11:57:01;7.80;;;2.97;;
6388;SDS011;3227;42.654;23.360;2023-04-29T11:59:29;5.38;;;2.63;;
6388;SDS011;3227;42.654;23.360;2023-04-29T12:01:58;5.45;;;2.75;;
6388;SDS011;3227;42.654;23.360;2023-04-29T12:04:25;9.93;;;2.83;;
6388;SDS011;3227;42.654;23.360;2023-04-29T12:06:52;7.28;;;2.70;;
6388;SDS011;3227;42.654;23.360;2023-04-29T12:09:20;8.43;;;2.60;;
6388;SDS011;3227;42.654;23.360;2023-04-29T12:11:47;7.10;;;2.40;;
6388;SDS011;3227;42.654;23.360;2023-04-29T12:14:15;6.87;;;2.73;;
6388;SDS011;3227;42.654;23.360;2023-04-29T12:16:43;6.18;;;2.70;;
6388;SDS011;3227;42.654;23.360;2023-04-29T12:19:11;9.13;;;2.87;;
6388;SDS011;3227;42.654;23.360;2023-04-29T12:21:47;5.40;;;2.70;;
6388;SDS011;3227;42.654;23.360;2023-04-29T12:24:14;9.00;;;2.72;;
6388;SDS011;3227;42.654;23.360;2023-04-29T12:26:44;6.63;;;2.90;;
6388;SDS011;3227;42.654;23.360;2023-04-29T12:29:12;7.00;;;2.60;;
6388;SDS011;3227;42.654;23.360;2023-04-29T12:31:39;11.10;;;2.97;;
6388;SDS011;3227;42.654;23.360;2023-04-29T12:34:07;6.70;;;2.90;;
6388;SDS011;3227;42.654;23.360;2023-04-29T12:36:35;6.47;;;3.07;;
6388;SDS011;3227;42.654;23.360;2023-04-29T12:39:09;8.27;;;3.13;;
6388;SDS011;3227;42.654;23.360;2023-04-29T12:41:36;7.70;;;3.47;;
6388;SDS011;3227;42.654;23.360;2023-04-29T12:44:04;7.57;;;3.17;;
6388;SDS011;3227;42.654;23.360;2023-04-29T12:46:35;6.93;;;2.90;;
6388;SDS011;3227;42.654;23.360;2023-04-29T12:49:02;14.37;;;3.07;;
6388;SDS011;3227;42.654;23.360;2023-04-29T12:51:30;8.37;;;3.23;;
6388;SDS011;3227;42.654;23.360;2023-04-29T12:53:59;5.83;;;2.90;;
6388;SDS011;3227;42.654;23.360;2023-04-29T12:56:27;6.43;;;2.97;;
6388;SDS011;3227;42.654;23.360;2023-04-29T12:58:54;5.47;;;2.73;;
6388;SDS011;3227;42.654;23.360;2023-04-29T13:01:21;8.20;;;3.33;;
6388;SDS011;3227;42.654;23.360;2023-04-29T13:03:48;9.13;;;3.30;;
6388;SDS011;3227;42.654;23.360;2023-04-29T13:06:15;7.03;;;2.57;;
6388;SDS011;3227;42.654;23.360;2023-04-29T13:08:43;8.57;;;3.17;;
6388;SDS011;3227;42.654;23.360;2023-04-29T13:11:11;5.47;;;2.72;;
6388;SDS011;3227;42.654;23.360;2023-04-29T13:13:38;6.10;;;2.63;;
6388;SDS011;3227;42.654;23.360;2023-04-29T13:16:06;6.45;;;2.42;;
6388;SDS011;3227;42.654;23.360;2023-04-29T13:18:33;7.27;;;2.70;;
6388;SDS011;3227;42.654;23.360;2023-04-29T13:21:00;6.13;;;2.53;;
6388;SDS011;3227;42.654;23.360;2023-04-29T13:23:26;7.03;;;3.00;;
6388;SDS011;3227;42.654;23.360;2023-04-29T13:25:53;9.53;;;2.83;;
6388;SDS011;3227;42.654;23.360;2023-04-29T13:28:21;8.67;;;2.70;;
6388;SDS011;3227;42.654;23.360;2023-04-29T13:30:48;5.40;;;2.43;;
6388;SDS011;3227;42.654;23.360;2023-04-29T13:33:16;5.40;;;2.60;;
6388;SDS011;3227;42.654;23.360;2023-04-29T13:35:43;5.90;;;2.40;;
6388;SDS011;3227;42.654;23.360;2023-04-29T13:38:11;5.37;;;2.43;;
6388;SDS011;3227;42.654;23.360;2023-04-29T13:40:37;7.63;;;2.60;;
6388;SDS011;3227;42.654;23.360;2023-04-29T13:43:04;5.00;;;2.40;;
6388;SDS011;3227;42.654;23.360;2023-04-29T13:45:33;4.23;;;2.17;;
6388;SDS011;3227;42.654;23.360;2023-04-29T13:48:00;6.57;;;2.70;;
6388;SDS011;3227;42.654;23.360;2023-04-29T13:50:27;5.20;;;2.30;;
6388;SDS011;3227;42.654;23.360;2023-04-29T13:52:53;7.60;;;2.30;;
6388;SDS011;3227;42.654;23.360;2023-04-29T13:55:20;5.37;;;2.30;;
6388;SDS011;3227;42.654;23.360;2023-04-29T13:57:47;5.70;;;2.30;;
6388;SDS011;3227;42.654;23.360;2023-04-29T14:00:15;3.70;;;2.20;;
6388;SDS011;3227;42.654;23.360;2023-04-29T14:02:43;4.30;;;2.40;;
6388;SDS011;3227;42.654;23.360;2023-04-29T14:05:10;4.73;;;2.40;;
6388;SDS011;3227;42.654;23.360;2023-04-29T14:07:37;5.60;;;2.53;;
6388;SDS011;3227;42.654;23.360;2023-04-29T14:10:04;5.50;;;2.40;;
6388;SDS011;3227;42.654;23.360;2023-04-29T14:12:31;5.10;;;2.60;;
6388;SDS011;3227;42.654;23.360;2023-04-29T14:14:58;11.10;;;2.97;;
6388;SDS011;3227;42.654;23.360;2023-04-29T14:17:25;6.70;;;2.60;;
6388;SDS011;3227;42.654;23.360;2023-04-29T14:19:53;6.82;;;2.60;;
6388;SDS011;3227;42.654;23.360;2023-04-29T14:22:19;6.30;;;2.70;;
6388;SDS011;3227;42.654;23.360;2023-04-29T14:24:46;9.73;;;4.45;;
6388;SDS011;3227;42.654;23.360;2023-04-29T14:27:13;5.25;;;2.58;;
6388;SDS011;3227;42.654;23.360;2023-04-29T14:29:40;6.07;;;2.70;;
6388;SDS011;3227;42.654;23.360;2023-04-29T14:32:06;6.07;;;2.80;;
6388;SDS011;3227;42.654;23.360;2023-04-29T14:34:34;6.53;;;2.72;;
6388;SDS011;3227;42.654;23.360;2023-04-29T14:37:02;7.32;;;2.83;;
6388;SDS011;3227;42.654;23.360;2023-04-29T14:39:29;6.07;;;2.72;;
6388;SDS011;3227;42.654;23.360;2023-04-29T14:41:56;6.68;;;3.08;;
6388;SDS011;3227;42.654;23.360;2023-04-29T14:44:22;5.10;;;2.53;;
6388;SDS011;3227;42.654;23.360;2023-04-29T14:46:49;5.97;;;2.83;;
6388;SDS011;3227;42.654;23.360;2023-04-29T14:49:16;5.07;;;2.45;;
6388;SDS011;3227;42.654;23.360;2023-04-29T14:51:43;5.47;;;2.95;;
6388;SDS011;3227;42.654;23.360;2023-04-29T14:54:11;7.00;;;3.25;;
6388;SDS011;3227;42.654;23.360;2023-04-29T14:56:38;6.60;;;3.13;;
6388;SDS011;3227;42.654;23.360;2023-04-29T14:59:04;7.20;;;3.05;;
6388;SDS011;3227;42.654;23.360;2023-04-29T15:01:33;7.18;;;4.28;;
6388;SDS011;3227;42.654;23.360;2023-04-29T15:04:00;11.80;;;6.18;;
6388;SDS011;3227;42.654;23.360;2023-04-29T15:06:28;6.32;;;3.17;;